sensor_id;sensor_type;location;lat;lon;timestamp;P1;durP1;ratioP1;P2;durP2;ratioP2
65831;SDS011;52593;42.648;23.332;2022-12-05T00:00:09;10.38;;;4.22;;
65831;SDS011;52593;42.648;23.332;2022-12-05T00:02:35;11.13;;;4.30;;
65831;SDS011;52593;42.648;23.332;2022-12-05T00:05:01;12.00;;;4.30;;
65831;SDS011;52593;42.648;23.332;2022-12-05T00:07:27;11.30;;;4.43;;
65831;SDS011;52593;42.648;23.332;2022-12-05T00:09:52;10.57;;;4.20;;
65831;SDS011;52593;42.648;23.332;2022-12-05T00:12:17;10.00;;;4.07;;
65831;SDS011;52593;42.648;23.332;2022-12-05T00:14:43;11.80;;;4.20;;
65831;SDS011;52593;42.648;23.332;2022-12-05T00:17:09;11.03;;;4.60;;
65831;SDS011;52593;42.648;23.332;2022-12-05T00:19:34;13.90;;;4.68;;
65831;SDS011;52593;42.648;23.332;2022-12-05T00:22:00;11.27;;;4.13;;
65831;SDS011;52593;42.648;23.332;2022-12-05T00:24:25;11.80;;;4.30;;
65831;SDS011;52593;42.648;23.332;2022-12-05T00:26:50;13.47;;;4.47;;
65831;SDS011;52593;42.648;23.332;2022-12-05T00:29:16;10.93;;;4.13;;
65831;SDS011;52593;42.648;23.332;2022-12-05T00:31:42;11.57;;;4.17;;
65831;SDS011;52593;42.648;23.332;2022-12-05T00:34:07;12.45;;;4.03;;
65831;SDS011;52593;42.648;23.332;2022-12-05T00:36:34;10.63;;;4.10;;
65831;SDS011;52593;42.648;23.332;2022-12-05T00:39:01;11.02;;;4.03;;
65831;SDS011;52593;42.648;23.332;2022-12-05T00:41:29;13.13;;;4.18;;
65831;SDS011;52593;42.648;23.332;2022-12-05T00:43:54;11.57;;;3.93;;
65831;SDS011;52593;42.648;23.332;2022-12-05T00:46:23;13.48;;;4.38;;
65831;SDS011;52593;42.648;23.332;2022-12-05T00:48:53;11.52;;;4.35;;
65831;SDS011;52593;42.648;23.332;2022-12-05T00:51:21;11.48;;;4.47;;
65831;SDS011;52593;42.648;23.332;2022-12-05T00:53:48;11.33;;;4.37;;
65831;SDS011;52593;42.648;23.332;2022-12-05T00:56:19;14.23;;;5.30;;
65831;SDS011;52593;42.648;23.332;2022-12-05T00:58:46;12.07;;;4.85;;
65831;SDS011;52593;42.648;23.332;2022-12-05T01:01:14;13.07;;;4.68;;
65831;SDS011;52593;42.648;23.332;2022-12-05T01:03:46;11.40;;;4.32;;
65831;SDS011;52593;42.648;23.332;2022-12-05T01:06:13;14.37;;;4.30;;
65831;SDS011;52593;42.648;23.332;2022-12-05T01:08:39;12.32;;;4.85;;
65831;SDS011;52593;42.648;23.332;2022-12-05T01:11:06;12.48;;;4.88;;
65831;SDS011;52593;42.648;23.332;2022-12-05T01:13:32;11.68;;;4.70;;
65831;SDS011;52593;42.648;23.332;2022-12-05T01:15:58;15.10;;;5.30;;
65831;SDS011;52593;42.648;23.332;2022-12-05T01:18:24;12.93;;;4.40;;
65831;SDS011;52593;42.648;23.332;2022-12-05T01:20:50;14.75;;;4.78;;
65831;SDS011;52593;42.648;23.332;2022-12-05T01:23:16;13.37;;;4.27;;
65831;SDS011;52593;42.648;23.332;2022-12-05T01:25:42;11.48;;;3.97;;
65831;SDS011;52593;42.648;23.332;2022-12-05T01:28:11;11.48;;;4.70;;
65831;SDS011;52593;42.648;23.332;2022-12-05T01:30:38;11.45;;;4.32;;
65831;SDS011;52593;42.648;23.332;2022-12-05T01:33:04;12.60;;;4.30;;
65831;SDS011;52593;42.648;23.332;2022-12-05T01:35:31;10.83;;;4.10;;
65831;SDS011;52593;42.648;23.332;2022-12-05T01:37:57;11.93;;;4.53;;
65831;SDS011;52593;42.648;23.332;2022-12-05T01:40:22;10.23;;;3.77;;
65831;SDS011;52593;42.648;23.332;2022-12-05T01:42:47;11.70;;;4.40;;
65831;SDS011;52593;42.648;23.332;2022-12-05T01:45:14;11.82;;;3.90;;
65831;SDS011;52593;42.648;23.332;2022-12-05T01:47:41;11.33;;;4.00;;
65831;SDS011;52593;42.648;23.332;2022-12-05T01:50:08;11.55;;;4.15;;
65831;SDS011;52593;42.648;23.332;2022-12-05T01:52:34;11.57;;;4.45;;
65831;SDS011;52593;42.648;23.332;2022-12-05T01:55:05;12.55;;;4.20;;
65831;SDS011;52593;42.648;23.332;2022-12-05T01:57:34;16.50;;;4.67;;
65831;SDS011;52593;42.648;23.332;2022-12-05T02:00:03;15.10;;;4.70;;
65831;SDS011;52593;42.648;23.332;2022-12-05T02:02:34;12.80;;;4.80;;
65831;SDS011;52593;42.648;23.332;2022-12-05T02:05:22;12.43;;;4.40;;
65831;SDS011;52593;42.648;23.332;2022-12-05T02:07:51;13.57;;;4.82;;
65831;SDS011;52593;42.648;23.332;2022-12-05T02:10:17;13.73;;;4.85;;
65831;SDS011;52593;42.648;23.332;2022-12-05T02:12:42;11.57;;;4.20;;
65831;SDS011;52593;42.648;23.332;2022-12-05T02:31:48;13.00;;;4.63;;
65831;SDS011;52593;42.648;23.332;2022-12-05T02:34:43;13.90;;;4.70;;
65831;SDS011;52593;42.648;23.332;2022-12-05T02:40:02;12.73;;;4.65;;
65831;SDS011;52593;42.648;23.332;2022-12-05T02:42:35;13.65;;;4.65;;
65831;SDS011;52593;42.648;23.332;2022-12-05T02:45:07;13.67;;;4.73;;
65831;SDS011;52593;42.648;23.332;2022-12-05T02:47:37;11.48;;;3.90;;
65831;SDS011;52593;42.648;23.332;2022-12-05T02:50:08;12.85;;;5.00;;
65831;SDS011;52593;42.648;23.332;2022-12-05T02:52:36;13.13;;;4.75;;
65831;SDS011;52593;42.648;23.332;2022-12-05T02:55:02;12.93;;;4.70;;
65831;SDS011;52593;42.648;23.332;2022-12-05T02:57:28;14.32;;;5.43;;
65831;SDS011;52593;42.648;23.332;2022-12-05T02:59:55;14.20;;;5.13;;
65831;SDS011;52593;42.648;23.332;2022-12-05T03:02:21;13.00;;;5.17;;
65831;SDS011;52593;42.648;23.332;2022-12-05T03:04:48;11.35;;;4.40;;
65831;SDS011;52593;42.648;23.332;2022-12-05T03:07:14;12.03;;;4.47;;
65831;SDS011;52593;42.648;23.332;2022-12-05T03:09:47;11.90;;;4.90;;
65831;SDS011;52593;42.648;23.332;2022-12-05T03:12:27;12.18;;;5.30;;
65831;SDS011;52593;42.648;23.332;2022-12-05T03:15:05;13.70;;;4.97;;
65831;SDS011;52593;42.648;23.332;2022-12-05T03:17:40;15.00;;;4.93;;
65831;SDS011;52593;42.648;23.332;2022-12-05T03:20:22;13.93;;;5.03;;
65831;SDS011;52593;42.648;23.332;2022-12-05T03:23:11;16.73;;;5.38;;
65831;SDS011;52593;42.648;23.332;2022-12-05T03:26:04;15.80;;;4.82;;
65831;SDS011;52593;42.648;23.332;2022-12-05T03:28:31;13.27;;;5.10;;
65831;SDS011;52593;42.648;23.332;2022-12-05T03:31:07;13.57;;;4.73;;
65831;SDS011;52593;42.648;23.332;2022-12-05T03:33:36;13.63;;;4.93;;
65831;SDS011;52593;42.648;23.332;2022-12-05T03:38:34;14.80;;;4.83;;
65831;SDS011;52593;42.648;23.332;2022-12-05T03:41:34;13.35;;;5.10;;
65831;SDS011;52593;42.648;23.332;2022-12-05T03:46:44;14.38;;;4.95;;
65831;SDS011;52593;42.648;23.332;2022-12-05T03:49:33;12.50;;;4.30;;
65831;SDS011;52593;42.648;23.332;2022-12-05T03:52:07;13.60;;;5.10;;
65831;SDS011;52593;42.648;23.332;2022-12-05T03:54:39;12.15;;;4.70;;
65831;SDS011;52593;42.648;23.332;2022-12-05T03:59:42;12.82;;;4.65;;
65831;SDS011;52593;42.648;23.332;2022-12-05T04:02:14;12.10;;;4.40;;
65831;SDS011;52593;42.648;23.332;2022-12-05T04:04:52;13.60;;;4.95;;
65831;SDS011;52593;42.648;23.332;2022-12-05T04:07:22;15.38;;;5.53;;
65831;SDS011;52593;42.648;23.332;2022-12-05T04:09:51;14.93;;;5.47;;
65831;SDS011;52593;42.648;23.332;2022-12-05T04:12:24;14.05;;;5.50;;
65831;SDS011;52593;42.648;23.332;2022-12-05T04:14:54;13.83;;;5.87;;
65831;SDS011;52593;42.648;23.332;2022-12-05T04:17:31;11.93;;;4.93;;
65831;SDS011;52593;42.648;23.332;2022-12-05T04:20:12;15.70;;;5.97;;
65831;SDS011;52593;42.648;23.332;2022-12-05T04:23:10;16.45;;;6.25;;
65831;SDS011;52593;42.648;23.332;2022-12-05T04:25:36;16.53;;;5.60;;
65831;SDS011;52593;42.648;23.332;2022-12-05T04:33:42;16.30;;;5.57;;
65831;SDS011;52593;42.648;23.332;2022-12-05T04:36:15;16.23;;;5.60;;
65831;SDS011;52593;42.648;23.332;2022-12-05T04:39:03;15.17;;;5.27;;
65831;SDS011;52593;42.648;23.332;2022-12-05T04:41:35;14.65;;;5.35;;
65831;SDS011;52593;42.648;23.332;2022-12-05T04:44:07;16.02;;;5.43;;
65831;SDS011;52593;42.648;23.332;2022-12-05T04:46:37;15.48;;;5.45;;
65831;SDS011;52593;42.648;23.332;2022-12-05T04:49:06;15.27;;;5.47;;
65831;SDS011;52593;42.648;23.332;2022-12-05T04:51:34;15.53;;;5.10;;
65831;SDS011;52593;42.648;23.332;2022-12-05T04:54:08;16.08;;;5.68;;
65831;SDS011;52593;42.648;23.332;2022-12-05T04:56:39;18.60;;;6.05;;
65831;SDS011;52593;42.648;23.332;2022-12-05T04:59:08;14.25;;;5.07;;
65831;SDS011;52593;42.648;23.332;2022-12-05T05:01:36;13.80;;;5.15;;
65831;SDS011;52593;42.648;23.332;2022-12-05T05:04:12;14.30;;;5.70;;
65831;SDS011;52593;42.648;23.332;2022-12-05T05:07:03;15.65;;;6.30;;
65831;SDS011;52593;42.648;23.332;2022-12-05T05:09:30;15.32;;;5.55;;
65831;SDS011;52593;42.648;23.332;2022-12-05T05:11:56;15.20;;;5.10;;
65831;SDS011;52593;42.648;23.332;2022-12-05T05:14:21;15.27;;;6.00;;
65831;SDS011;52593;42.648;23.332;2022-12-05T05:16:47;15.60;;;5.23;;
65831;SDS011;52593;42.648;23.332;2022-12-05T05:19:12;14.90;;;5.70;;
65831;SDS011;52593;42.648;23.332;2022-12-05T05:21:38;17.00;;;5.93;;
65831;SDS011;52593;42.648;23.332;2022-12-05T05:24:06;16.60;;;5.68;;
65831;SDS011;52593;42.648;23.332;2022-12-05T05:26:34;13.57;;;5.40;;
65831;SDS011;52593;42.648;23.332;2022-12-05T05:29:03;13.93;;;5.30;;
65831;SDS011;52593;42.648;23.332;2022-12-05T05:31:29;15.98;;;5.90;;
65831;SDS011;52593;42.648;23.332;2022-12-05T05:33:54;13.33;;;4.83;;
65831;SDS011;52593;42.648;23.332;2022-12-05T05:36:22;15.82;;;5.15;;
65831;SDS011;52593;42.648;23.332;2022-12-05T05:38:49;14.55;;;4.55;;
65831;SDS011;52593;42.648;23.332;2022-12-05T05:41:17;13.60;;;5.00;;
65831;SDS011;52593;42.648;23.332;2022-12-05T05:43:50;14.80;;;4.50;;
65831;SDS011;52593;42.648;23.332;2022-12-05T05:46:17;14.27;;;5.45;;
65831;SDS011;52593;42.648;23.332;2022-12-05T05:48:44;19.35;;;6.25;;
65831;SDS011;52593;42.648;23.332;2022-12-05T05:51:10;18.43;;;6.37;;
65831;SDS011;52593;42.648;23.332;2022-12-05T05:53:37;16.17;;;6.63;;
65831;SDS011;52593;42.648;23.332;2022-12-05T05:56:03;13.07;;;5.30;;
65831;SDS011;52593;42.648;23.332;2022-12-05T05:58:29;15.98;;;5.72;;
65831;SDS011;52593;42.648;23.332;2022-12-05T06:01:01;13.37;;;5.47;;
65831;SDS011;52593;42.648;23.332;2022-12-05T06:03:30;17.75;;;5.93;;
65831;SDS011;52593;42.648;23.332;2022-12-05T06:05:56;17.87;;;5.40;;
65831;SDS011;52593;42.648;23.332;2022-12-05T06:08:23;17.08;;;5.55;;
65831;SDS011;52593;42.648;23.332;2022-12-05T06:10:48;12.97;;;5.00;;
65831;SDS011;52593;42.648;23.332;2022-12-05T06:13:14;14.27;;;5.40;;
65831;SDS011;52593;42.648;23.332;2022-12-05T06:15:39;15.53;;;5.90;;
65831;SDS011;52593;42.648;23.332;2022-12-05T06:18:04;17.48;;;5.97;;
65831;SDS011;52593;42.648;23.332;2022-12-05T06:20:30;14.30;;;5.47;;
65831;SDS011;52593;42.648;23.332;2022-12-05T06:22:55;14.10;;;5.20;;
65831;SDS011;52593;42.648;23.332;2022-12-05T06:25:21;15.53;;;6.13;;
65831;SDS011;52593;42.648;23.332;2022-12-05T06:27:46;14.23;;;5.37;;
65831;SDS011;52593;42.648;23.332;2022-12-05T06:30:11;16.90;;;5.33;;
65831;SDS011;52593;42.648;23.332;2022-12-05T06:32:37;19.33;;;6.27;;
65831;SDS011;52593;42.648;23.332;2022-12-05T06:35:03;17.97;;;5.67;;
65831;SDS011;52593;42.648;23.332;2022-12-05T06:37:36;17.67;;;6.00;;
65831;SDS011;52593;42.648;23.332;2022-12-05T06:40:02;14.43;;;5.28;;
65831;SDS011;52593;42.648;23.332;2022-12-05T06:42:29;16.35;;;5.35;;
65831;SDS011;52593;42.648;23.332;2022-12-05T06:44:55;15.47;;;6.23;;
65831;SDS011;52593;42.648;23.332;2022-12-05T06:47:20;16.97;;;5.70;;
65831;SDS011;52593;42.648;23.332;2022-12-05T06:49:46;14.03;;;5.70;;
65831;SDS011;52593;42.648;23.332;2022-12-05T06:52:11;16.40;;;5.53;;
65831;SDS011;52593;42.648;23.332;2022-12-05T06:54:36;15.63;;;5.80;;
65831;SDS011;52593;42.648;23.332;2022-12-05T06:57:02;14.60;;;5.60;;
65831;SDS011;52593;42.648;23.332;2022-12-05T06:59:27;14.43;;;5.30;;
65831;SDS011;52593;42.648;23.332;2022-12-05T07:01:52;14.07;;;5.60;;
65831;SDS011;52593;42.648;23.332;2022-12-05T07:04:19;14.80;;;5.97;;
65831;SDS011;52593;42.648;23.332;2022-12-05T07:06:48;15.43;;;5.45;;
65831;SDS011;52593;42.648;23.332;2022-12-05T07:09:14;13.52;;;5.30;;
65831;SDS011;52593;42.648;23.332;2022-12-05T07:11:40;16.53;;;4.93;;
65831;SDS011;52593;42.648;23.332;2022-12-05T07:14:06;17.67;;;5.10;;
65831;SDS011;52593;42.648;23.332;2022-12-05T07:16:33;16.77;;;4.97;;
65831;SDS011;52593;42.648;23.332;2022-12-05T07:18:59;13.50;;;5.57;;
65831;SDS011;52593;42.648;23.332;2022-12-05T07:21:24;15.40;;;4.80;;
65831;SDS011;52593;42.648;23.332;2022-12-05T07:23:50;17.07;;;5.03;;
65831;SDS011;52593;42.648;23.332;2022-12-05T07:26:17;15.00;;;4.97;;
65831;SDS011;52593;42.648;23.332;2022-12-05T07:28:45;12.25;;;4.38;;
65831;SDS011;52593;42.648;23.332;2022-12-05T07:31:13;12.23;;;4.10;;
65831;SDS011;52593;42.648;23.332;2022-12-05T07:33:40;13.95;;;4.82;;
65831;SDS011;52593;42.648;23.332;2022-12-05T07:36:07;13.97;;;4.27;;
65831;SDS011;52593;42.648;23.332;2022-12-05T07:38:35;12.32;;;4.20;;
65831;SDS011;52593;42.648;23.332;2022-12-05T07:41:04;10.45;;;4.40;;
65831;SDS011;52593;42.648;23.332;2022-12-05T07:43:31;12.90;;;4.10;;
65831;SDS011;52593;42.648;23.332;2022-12-05T07:46:03;12.95;;;4.53;;
65831;SDS011;52593;42.648;23.332;2022-12-05T07:48:30;13.20;;;4.57;;
65831;SDS011;52593;42.648;23.332;2022-12-05T07:51:02;11.70;;;4.50;;
65831;SDS011;52593;42.648;23.332;2022-12-05T07:53:29;17.13;;;4.90;;
65831;SDS011;52593;42.648;23.332;2022-12-05T07:55:59;12.77;;;4.83;;
65831;SDS011;52593;42.648;23.332;2022-12-05T07:58:29;13.35;;;5.05;;
65831;SDS011;52593;42.648;23.332;2022-12-05T08:00:56;21.27;;;5.05;;
65831;SDS011;52593;42.648;23.332;2022-12-05T08:03:22;15.43;;;4.82;;
65831;SDS011;52593;42.648;23.332;2022-12-05T08:05:48;11.10;;;5.00;;
65831;SDS011;52593;42.648;23.332;2022-12-05T08:08:14;13.02;;;4.63;;
65831;SDS011;52593;42.648;23.332;2022-12-05T08:10:39;14.03;;;4.70;;
65831;SDS011;52593;42.648;23.332;2022-12-05T08:13:04;11.80;;;4.27;;
65831;SDS011;52593;42.648;23.332;2022-12-05T08:15:33;12.27;;;4.57;;
65831;SDS011;52593;42.648;23.332;2022-12-05T08:17:59;14.48;;;4.60;;
65831;SDS011;52593;42.648;23.332;2022-12-05T08:20:25;14.47;;;4.57;;
65831;SDS011;52593;42.648;23.332;2022-12-05T08:22:51;11.17;;;4.67;;
65831;SDS011;52593;42.648;23.332;2022-12-05T08:25:17;12.88;;;4.82;;
65831;SDS011;52593;42.648;23.332;2022-12-05T08:27:43;12.30;;;4.33;;
65831;SDS011;52593;42.648;23.332;2022-12-05T08:30:08;13.30;;;4.30;;
65831;SDS011;52593;42.648;23.332;2022-12-05T08:32:33;13.20;;;4.07;;
65831;SDS011;52593;42.648;23.332;2022-12-05T08:34:59;10.70;;;3.90;;
65831;SDS011;52593;42.648;23.332;2022-12-05T08:37:24;11.37;;;3.80;;
65831;SDS011;52593;42.648;23.332;2022-12-05T08:39:49;12.33;;;4.10;;
65831;SDS011;52593;42.648;23.332;2022-12-05T08:42:15;11.57;;;4.00;;
65831;SDS011;52593;42.648;23.332;2022-12-05T08:44:40;13.18;;;4.18;;
65831;SDS011;52593;42.648;23.332;2022-12-05T08:47:06;10.03;;;3.80;;
65831;SDS011;52593;42.648;23.332;2022-12-05T08:49:31;9.03;;;3.80;;
65831;SDS011;52593;42.648;23.332;2022-12-05T08:51:56;10.10;;;2.97;;
65831;SDS011;52593;42.648;23.332;2022-12-05T08:54:22;9.33;;;3.40;;
65831;SDS011;52593;42.648;23.332;2022-12-05T08:56:49;8.70;;;2.90;;
65831;SDS011;52593;42.648;23.332;2022-12-05T08:59:15;7.70;;;3.10;;
65831;SDS011;52593;42.648;23.332;2022-12-05T09:01:41;8.60;;;3.20;;
65831;SDS011;52593;42.648;23.332;2022-12-05T09:04:06;18.57;;;6.93;;
65831;SDS011;52593;42.648;23.332;2022-12-05T09:06:32;9.20;;;3.40;;
65831;SDS011;52593;42.648;23.332;2022-12-05T09:08:59;8.88;;;3.88;;
65831;SDS011;52593;42.648;23.332;2022-12-05T09:11:29;9.52;;;3.67;;
65831;SDS011;52593;42.648;23.332;2022-12-05T09:13:56;9.80;;;3.88;;
65831;SDS011;52593;42.648;23.332;2022-12-05T09:16:24;8.77;;;3.37;;
65831;SDS011;52593;42.648;23.332;2022-12-05T09:19:00;9.05;;;3.50;;
65831;SDS011;52593;42.648;23.332;2022-12-05T09:21:26;10.13;;;3.95;;
65831;SDS011;52593;42.648;23.332;2022-12-05T09:23:53;9.83;;;4.07;;
65831;SDS011;52593;42.648;23.332;2022-12-05T09:26:20;8.95;;;3.53;;
65831;SDS011;52593;42.648;23.332;2022-12-05T09:28:47;8.07;;;3.35;;
65831;SDS011;52593;42.648;23.332;2022-12-05T09:31:14;8.20;;;3.17;;
65831;SDS011;52593;42.648;23.332;2022-12-05T09:33:41;8.57;;;3.47;;
65831;SDS011;52593;42.648;23.332;2022-12-05T09:36:10;8.53;;;3.30;;
65831;SDS011;52593;42.648;23.332;2022-12-05T09:38:38;9.63;;;4.25;;
65831;SDS011;52593;42.648;23.332;2022-12-05T09:47:10;9.45;;;3.97;;
65831;SDS011;52593;42.648;23.332;2022-12-05T09:49:14;11.88;;;3.97;;
65831;SDS011;52593;42.648;23.332;2022-12-05T09:51:41;11.50;;;4.13;;
65831;SDS011;52593;42.648;23.332;2022-12-05T09:54:10;10.30;;;4.03;;
65831;SDS011;52593;42.648;23.332;2022-12-05T09:56:37;10.80;;;4.00;;
65831;SDS011;52593;42.648;23.332;2022-12-05T09:59:13;9.70;;;3.70;;
65831;SDS011;52593;42.648;23.332;2022-12-05T10:04:45;11.63;;;5.13;;
65831;SDS011;52593;42.648;23.332;2022-12-05T10:07:35;10.13;;;3.97;;
65831;SDS011;52593;42.648;23.332;2022-12-05T10:15:56;10.00;;;4.32;;
65831;SDS011;52593;42.648;23.332;2022-12-05T10:18:36;12.35;;;4.85;;
65831;SDS011;52593;42.648;23.332;2022-12-05T10:21:11;10.73;;;4.22;;
65831;SDS011;52593;42.648;23.332;2022-12-05T10:26:12;14.50;;;6.17;;
65831;SDS011;52593;42.648;23.332;2022-12-05T10:31:41;12.73;;;4.07;;
65831;SDS011;52593;42.648;23.332;2022-12-05T10:36:57;13.35;;;4.32;;
65831;SDS011;52593;42.648;23.332;2022-12-05T10:39:29;11.90;;;4.20;;
65831;SDS011;52593;42.648;23.332;2022-12-05T10:41:55;10.93;;;5.00;;
65831;SDS011;52593;42.648;23.332;2022-12-05T10:44:20;11.17;;;4.20;;
65831;SDS011;52593;42.648;23.332;2022-12-05T10:46:46;10.87;;;4.30;;
65831;SDS011;52593;42.648;23.332;2022-12-05T10:49:12;11.05;;;3.92;;
65831;SDS011;52593;42.648;23.332;2022-12-05T10:51:38;10.30;;;4.27;;
65831;SDS011;52593;42.648;23.332;2022-12-05T10:54:23;9.73;;;3.85;;
65831;SDS011;52593;42.648;23.332;2022-12-05T10:56:52;12.55;;;4.78;;
65831;SDS011;52593;42.648;23.332;2022-12-05T10:59:23;11.23;;;4.77;;
65831;SDS011;52593;42.648;23.332;2022-12-05T11:01:54;15.57;;;6.07;;
65831;SDS011;52593;42.648;23.332;2022-12-05T11:04:23;15.98;;;7.63;;
65831;SDS011;52593;42.648;23.332;2022-12-05T11:07:01;18.45;;;9.35;;
65831;SDS011;52593;42.648;23.332;2022-12-05T11:09:29;13.10;;;4.47;;
65831;SDS011;52593;42.648;23.332;2022-12-05T11:14:28;12.23;;;5.28;;
65831;SDS011;52593;42.648;23.332;2022-12-05T11:16:56;14.27;;;6.50;;
65831;SDS011;52593;42.648;23.332;2022-12-05T11:19:30;15.17;;;6.87;;
65831;SDS011;52593;42.648;23.332;2022-12-05T11:21:58;12.93;;;5.68;;
65831;SDS011;52593;42.648;23.332;2022-12-05T11:26:55;13.35;;;5.13;;
65831;SDS011;52593;42.648;23.332;2022-12-05T11:29:29;15.90;;;5.32;;
65831;SDS011;52593;42.648;23.332;2022-12-05T11:31:56;11.80;;;4.73;;
65831;SDS011;52593;42.648;23.332;2022-12-05T11:34:23;13.52;;;4.93;;
65831;SDS011;52593;42.648;23.332;2022-12-05T11:36:53;12.27;;;4.47;;
65831;SDS011;52593;42.648;23.332;2022-12-05T11:39:22;12.97;;;4.10;;
65831;SDS011;52593;42.648;23.332;2022-12-05T11:58:37;10.45;;;4.00;;
65831;SDS011;52593;42.648;23.332;2022-12-05T12:21:11;11.85;;;4.85;;
65831;SDS011;52593;42.648;23.332;2022-12-05T12:29:28;18.48;;;6.82;;
65831;SDS011;52593;42.648;23.332;2022-12-05T12:32:31;17.77;;;5.68;;
65831;SDS011;52593;42.648;23.332;2022-12-05T12:40:42;19.50;;;6.93;;
65831;SDS011;52593;42.648;23.332;2022-12-05T12:51:50;16.30;;;6.17;;
65831;SDS011;52593;42.648;23.332;2022-12-05T12:57:07;22.27;;;7.00;;
65831;SDS011;52593;42.648;23.332;2022-12-05T13:07:35;18.63;;;6.35;;
65831;SDS011;52593;42.648;23.332;2022-12-05T13:13:05;18.77;;;6.90;;
65831;SDS011;52593;42.648;23.332;2022-12-05T13:15:37;23.80;;;7.13;;
65831;SDS011;52593;42.648;23.332;2022-12-05T13:18:06;21.53;;;6.53;;
65831;SDS011;52593;42.648;23.332;2022-12-05T13:20:40;16.98;;;6.05;;
65831;SDS011;52593;42.648;23.332;2022-12-05T13:23:06;17.13;;;6.75;;
65831;SDS011;52593;42.648;23.332;2022-12-05T13:25:36;19.65;;;7.85;;
65831;SDS011;52593;42.648;23.332;2022-12-05T13:28:04;24.58;;;7.65;;
65831;SDS011;52593;42.648;23.332;2022-12-05T13:30:32;22.77;;;8.27;;
65831;SDS011;52593;42.648;23.332;2022-12-05T13:33:18;18.98;;;7.05;;
65831;SDS011;52593;42.648;23.332;2022-12-05T13:35:49;19.77;;;7.88;;
65831;SDS011;52593;42.648;23.332;2022-12-05T13:38:39;18.65;;;6.97;;
65831;SDS011;52593;42.648;23.332;2022-12-05T13:44:33;23.27;;;7.67;;
65831;SDS011;52593;42.648;23.332;2022-12-05T13:47:03;23.52;;;7.60;;
65831;SDS011;52593;42.648;23.332;2022-12-05T13:49:40;23.70;;;8.60;;
65831;SDS011;52593;42.648;23.332;2022-12-05T13:52:15;22.58;;;8.05;;
65831;SDS011;52593;42.648;23.332;2022-12-05T13:55:00;20.38;;;8.27;;
65831;SDS011;52593;42.648;23.332;2022-12-05T14:07:41;28.92;;;9.05;;
65831;SDS011;52593;42.648;23.332;2022-12-05T14:10:10;21.00;;;8.03;;
65831;SDS011;52593;42.648;23.332;2022-12-05T14:12:45;21.52;;;7.97;;
65831;SDS011;52593;42.648;23.332;2022-12-05T14:15:24;24.27;;;9.18;;
65831;SDS011;52593;42.648;23.332;2022-12-05T14:20:35;23.67;;;8.32;;
65831;SDS011;52593;42.648;23.332;2022-12-05T14:29:11;21.33;;;7.78;;
65831;SDS011;52593;42.648;23.332;2022-12-05T14:39:56;20.50;;;7.78;;
65831;SDS011;52593;42.648;23.332;2022-12-05T14:47:47;27.43;;;8.90;;
65831;SDS011;52593;42.648;23.332;2022-12-05T14:50:23;27.48;;;9.43;;
65831;SDS011;52593;42.648;23.332;2022-12-05T14:53:13;24.92;;;8.73;;
65831;SDS011;52593;42.648;23.332;2022-12-05T14:55:46;26.77;;;10.27;;
65831;SDS011;52593;42.648;23.332;2022-12-05T15:01:16;28.45;;;10.02;;
65831;SDS011;52593;42.648;23.332;2022-12-05T15:06:26;26.92;;;9.70;;
65831;SDS011;52593;42.648;23.332;2022-12-05T15:08:54;25.07;;;9.43;;
65831;SDS011;52593;42.648;23.332;2022-12-05T15:11:22;25.35;;;8.88;;
65831;SDS011;52593;42.648;23.332;2022-12-05T15:13:57;27.48;;;9.38;;
65831;SDS011;52593;42.648;23.332;2022-12-05T15:16:34;26.60;;;9.60;;
65831;SDS011;52593;42.648;23.332;2022-12-05T15:19:05;23.23;;;8.55;;
65831;SDS011;52593;42.648;23.332;2022-12-05T15:21:41;21.97;;;7.87;;
65831;SDS011;52593;42.648;23.332;2022-12-05T15:24:13;23.38;;;8.40;;
65831;SDS011;52593;42.648;23.332;2022-12-05T15:29:11;24.85;;;8.88;;
65831;SDS011;52593;42.648;23.332;2022-12-05T15:31:44;25.42;;;9.52;;
65831;SDS011;52593;42.648;23.332;2022-12-05T15:36:51;25.17;;;10.00;;
65831;SDS011;52593;42.648;23.332;2022-12-05T15:39:27;26.08;;;8.93;;
65831;SDS011;52593;42.648;23.332;2022-12-05T15:41:53;23.10;;;8.57;;
65831;SDS011;52593;42.648;23.332;2022-12-05T15:44:20;29.40;;;10.18;;
65831;SDS011;52593;42.648;23.332;2022-12-05T15:46:50;25.92;;;8.88;;
65831;SDS011;52593;42.648;23.332;2022-12-05T15:49:24;30.27;;;9.52;;
65831;SDS011;52593;42.648;23.332;2022-12-05T15:51:52;25.67;;;8.93;;
65831;SDS011;52593;42.648;23.332;2022-12-05T15:54:23;26.15;;;9.02;;
65831;SDS011;52593;42.648;23.332;2022-12-05T15:56:57;29.17;;;10.45;;
65831;SDS011;52593;42.648;23.332;2022-12-05T15:59:41;24.27;;;9.30;;
65831;SDS011;52593;42.648;23.332;2022-12-05T16:02:21;26.50;;;9.15;;
65831;SDS011;52593;42.648;23.332;2022-12-05T16:04:54;33.80;;;11.00;;
65831;SDS011;52593;42.648;23.332;2022-12-05T16:07:22;30.20;;;10.60;;
65831;SDS011;52593;42.648;23.332;2022-12-05T16:09:54;29.33;;;10.82;;
65831;SDS011;52593;42.648;23.332;2022-12-05T16:12:26;27.80;;;10.32;;
65831;SDS011;52593;42.648;23.332;2022-12-05T16:14:55;30.13;;;11.13;;
65831;SDS011;52593;42.648;23.332;2022-12-05T16:17:24;22.77;;;8.97;;
65831;SDS011;52593;42.648;23.332;2022-12-05T16:19:50;26.67;;;9.85;;
65831;SDS011;52593;42.648;23.332;2022-12-05T16:22:23;27.00;;;9.93;;
65831;SDS011;52593;42.648;23.332;2022-12-05T16:27:21;35.08;;;10.65;;
65831;SDS011;52593;42.648;23.332;2022-12-05T16:32:35;25.33;;;9.43;;
65831;SDS011;52593;42.648;23.332;2022-12-05T16:35:01;25.38;;;9.13;;
65831;SDS011;52593;42.648;23.332;2022-12-05T16:37:28;28.95;;;9.70;;
65831;SDS011;52593;42.648;23.332;2022-12-05T16:39:54;27.13;;;10.25;;
65831;SDS011;52593;42.648;23.332;2022-12-05T16:42:24;26.35;;;9.63;;
65831;SDS011;52593;42.648;23.332;2022-12-05T16:55:35;25.83;;;9.35;;
65831;SDS011;52593;42.648;23.332;2022-12-05T16:58:07;25.63;;;9.13;;
65831;SDS011;52593;42.648;23.332;2022-12-05T17:00:35;24.58;;;9.02;;
65831;SDS011;52593;42.648;23.332;2022-12-05T17:03:01;20.93;;;8.60;;
65831;SDS011;52593;42.648;23.332;2022-12-05T17:05:26;24.03;;;9.03;;
65831;SDS011;52593;42.648;23.332;2022-12-05T17:07:52;24.77;;;9.47;;
65831;SDS011;52593;42.648;23.332;2022-12-05T17:10:18;28.95;;;10.48;;
65831;SDS011;52593;42.648;23.332;2022-12-05T17:12:43;24.97;;;9.13;;
65831;SDS011;52593;42.648;23.332;2022-12-05T17:15:15;27.20;;;10.37;;
65831;SDS011;52593;42.648;23.332;2022-12-05T17:17:42;26.75;;;9.43;;
65831;SDS011;52593;42.648;23.332;2022-12-05T17:20:08;24.83;;;9.45;;
65831;SDS011;52593;42.648;23.332;2022-12-05T17:22:33;25.58;;;10.32;;
65831;SDS011;52593;42.648;23.332;2022-12-05T17:24:59;29.93;;;11.33;;
65831;SDS011;52593;42.648;23.332;2022-12-05T17:27:24;25.60;;;10.73;;
65831;SDS011;52593;42.648;23.332;2022-12-05T17:29:50;22.17;;;9.00;;
65831;SDS011;52593;42.648;23.332;2022-12-05T17:32:16;25.10;;;9.80;;
65831;SDS011;52593;42.648;23.332;2022-12-05T17:34:41;21.70;;;8.87;;
65831;SDS011;52593;42.648;23.332;2022-12-05T17:37:06;22.45;;;9.85;;
65831;SDS011;52593;42.648;23.332;2022-12-05T17:39:32;25.40;;;9.70;;
65831;SDS011;52593;42.648;23.332;2022-12-05T17:41:57;24.37;;;8.77;;
65831;SDS011;52593;42.648;23.332;2022-12-05T17:44:22;19.73;;;8.00;;
65831;SDS011;52593;42.648;23.332;2022-12-05T17:46:48;19.57;;;7.90;;